Time;durP1;ratioP1;P1;durP2;ratioP2;P2;SDS_P1;SDS_P2;PMS_P1;PMS_P2;Temp;Humidity;BMP_temperature;BMP_pressure;BME280_temperature;BME280_humidity;BME280_pressure;Samples;Min_cycle;Max_cycle;Signal;HPM_P1;HPM_P2
2022/06/20 00:09:17;;;;;;;11.37;4.70;;;25.20;70.50;;;;;;20917483;28;20741;-64
2022/06/20 00:19:19;;;;;;;12.90;5.17;;;25.10;71.30;;;;;;20916570;28;20215;-74
2022/06/20 00:29:20;;;;;;;8.47;4.80;;;25.00;71.80;;;;;;20914942;28;20235;-72
2022/06/20 00:39:22;;;;;;;12.47;4.97;;;24.90;72.30;;;;;;20915157;28;20250;-66
2022/06/20 00:49:31;;;;;;;7.17;4.87;;;24.80;72.70;;;;;;20921527;28;20585;-64
2022/06/20 00:59:38;;;;;;;9.90;4.70;;;24.70;72.80;;;;;;20912949;28;20214;-68
2022/06/20 01:09:43;;;;;;;16.33;5.20;;;24.60;73.40;;;;;;20912808;28;20231;-75
2022/06/20 01:19:50;;;;;;;12.27;4.80;;;24.60;73.60;;;;;;20912815;28;20208;-75
2022/06/20 01:29:52;;;;;;;11.10;4.80;;;24.60;73.70;;;;;;20912703;28;20274;-64
2022/06/20 01:40:04;;;;;;;14.33;6.13;;;24.50;73.80;;;;;;20921964;28;20253;-67
2022/06/20 01:50:07;;;;;;;10.60;5.53;;;24.40;74.60;;;;;;20928674;28;20227;-63
2022/06/20 02:00:15;;;;;;;11.83;5.27;;;24.10;75.60;;;;;;20928650;28;20691;-66
2022/06/20 02:10:31;;;;;;;13.53;5.60;;;24.00;76.50;;;;;;20927980;28;20232;-64
2022/06/20 02:20:40;;;;;;;16.60;5.60;;;23.90;76.90;;;;;;20928745;28;20207;-64
2022/06/20 02:30:42;;;;;;;10.83;5.87;;;23.70;77.50;;;;;;20927000;28;20684;-63
2022/06/20 02:40:44;;;;;;;9.57;5.27;;;23.60;78.60;;;;;;20924237;28;20615;-63
2022/06/20 02:50:49;;;;;;;14.33;5.40;;;23.50;79.30;;;;;;20923412;28;20251;-69
2022/06/20 03:00:55;;;;;;;9.43;4.87;;;23.40;80.20;;;;;;20923625;28;20683;-67
2022/06/20 03:11:03;;;;;;;16.53;5.57;;;23.30;80.60;;;;;;20922476;28;20238;-64
2022/06/20 03:21:07;;;;;;;14.33;6.90;;;23.10;81.50;;;;;;20921367;28;20214;-63
2022/06/20 03:31:10;;;;;;;15.27;5.47;;;22.70;84.00;;;;;;20921366;28;20232;-65
2022/06/20 03:41:15;;;;;;;10.13;4.90;;;22.70;82.60;;;;;;20920134;28;20320;-64
2022/06/20 03:51:21;;;;;;;9.50;5.13;;;22.80;82.70;;;;;;20919857;28;20607;-64
2022/06/20 04:01:31;;;;;;;9.57;3.87;;;22.80;80.60;;;;;;20940306;28;20295;-63
2022/06/20 04:11:39;;;;;;;11.60;3.83;;;22.60;78.00;;;;;;20920133;28;20265;-70
2022/06/20 04:21:53;;;;;;;9.67;3.67;;;22.40;77.10;;;;;;20917117;28;20200;-64
2022/06/20 04:32:11;;;;;;;10.70;3.70;;;22.20;75.30;;;;;;20915894;28;20238;-67
2022/06/20 04:42:50;;;;;;;11.20;3.60;;;21.90;73.10;;;;;;20914614;28;20235;-71
2022/06/20 04:52:57;;;;;;;10.13;3.97;;;21.40;74.20;;;;;;20914077;28;20243;-70
2022/06/20 05:03:00;;;;;;;10.20;3.60;;;21.50;74.00;;;;;;20911797;28;20212;-70
2022/06/20 05:13:09;;;;;;;11.80;3.50;;;21.60;73.30;;;;;;20913815;28;20228;-63
2022/06/20 05:23:19;;;;;;;8.83;3.60;;;21.80;74.10;;;;;;20908604;28;20215;-72
2022/06/20 05:33:36;;;;;;;7.77;3.40;;;22.00;72.90;;;;;;20911587;28;20322;-63
2022/06/20 05:43:38;;;;;;;9.17;3.27;;;22.20;72.40;;;;;;20911302;28;20727;-63
2022/06/20 05:54:02;;;;;;;6.50;3.23;;;22.50;72.20;;;;;;20909412;28;20251;-64
2022/06/20 06:04:16;;;;;;;10.80;3.50;;;22.60;71.80;;;;;;20915872;28;20678;-63
2022/06/20 06:14:26;;;;;;;10.63;3.60;;;22.70;71.80;;;;;;20912590;28;20235;-63
2022/06/20 06:24:30;;;;;;;9.90;3.53;;;22.90;71.90;;;;;;20917654;28;20743;-64
2022/06/20 06:34:38;;;;;;;11.73;4.30;;;23.10;72.00;;;;;;20924588;28;20238;-64
2022/06/20 06:44:48;;;;;;;8.43;3.70;;;23.00;72.10;;;;;;20924994;28;20244;-63
2022/06/20 06:55:17;;;;;;;15.50;3.70;;;23.00;72.30;;;;;;20923307;28;20267;-62
2022/06/20 07:05:24;;;;;;;12.53;5.30;;;22.80;72.90;;;;;;20911952;28;20295;-61
2022/06/20 07:15:27;;;;;;;17.37;4.00;;;22.90;73.30;;;;;;20922099;28;20239;-63
2022/06/20 07:25:35;;;;;;;13.00;4.37;;;22.70;73.70;;;;;;20917390;28;20243;-63
2022/06/20 07:35:43;;;;;;;7.30;3.33;;;22.60;73.50;;;;;;20920826;28;20271;-63
2022/06/20 07:45:48;;;;;;;7.13;3.93;;;22.80;73.10;;;;;;20919748;28;20274;-62
2022/06/20 07:55:57;;;;;;;8.67;3.40;;;23.20;72.10;;;;;;20918534;28;20267;-66
2022/06/20 08:06:22;;;;;;;9.10;3.83;;;23.10;72.30;;;;;;20917313;28;20678;-63
2022/06/20 08:16:28;;;;;;;14.00;3.47;;;23.20;73.30;;;;;;20917186;28;20232;-70
2022/06/20 08:26:42;;;;;;;17.00;3.70;;;23.30;73.50;;;;;;20915920;28;20204;-64
2022/06/20 08:36:58;;;;;;;8.93;3.30;;;23.70;73.20;;;;;;20926107;28;20243;-65
2022/06/20 08:47:25;;;;;;;8.53;3.13;;;24.20;72.30;;;;;;20915511;28;20780;-64
2022/06/20 08:57:55;;;;;;;9.93;3.50;;;24.40;71.50;;;;;;20914512;28;20262;-70
2022/06/20 09:08:28;;;;;;;5.87;3.20;;;24.90;70.30;;;;;;20933718;28;20212;-65
2022/06/20 09:18:33;;;;;;;9.33;3.00;;;25.30;68.50;;;;;;20942810;28;20703;-66
2022/06/20 09:28:51;;;;;;;6.80;2.20;;;25.30;67.70;;;;;;20913176;28;20606;-66
2022/06/20 09:39:41;;;;;;;8.80;2.87;;;25.60;65.90;;;;;;20911680;28;20235;-65
2022/06/20 09:50:03;;;;;;;5.37;2.10;;;25.80;65.50;;;;;;20906375;28;20294;-64
2022/06/20 10:00:23;;;;;;;15.47;3.17;;;25.70;64.80;;;;;;20918968;28;20210;-67
2022/06/20 10:10:55;;;;;;;10.00;2.47;;;25.60;64.90;;;;;;20927122;28;20293;-69
2022/06/20 10:21:09;;;;;;;8.67;3.07;;;25.60;64.30;;;;;;20927217;28;20212;-65
2022/06/20 10:31:25;;;;;;;8.43;3.00;;;25.70;65.20;;;;;;20926380;28;20725;-70
2022/06/20 10:41:53;;;;;;;26.97;5.17;;;25.00;68.30;;;;;;20924848;28;20244;-63
2022/06/20 10:52:27;;;;;;;8.47;3.33;;;23.80;70.70;;;;;;20923905;28;20239;-64
2022/06/20 11:02:44;;;;;;;10.23;3.67;;;22.90;73.40;;;;;;20924775;28;20573;-63
2022/06/20 11:13:21;;;;;;;7.73;3.20;;;22.60;75.10;;;;;;20922608;28;20239;-62
2022/06/20 11:23:44;;;;;;;9.23;3.60;;;22.30;76.20;;;;;;20924966;28;20250;-65
2022/06/20 11:34:14;;;;;;;10.40;3.20;;;22.10;77.30;;;;;;20924838;28;20745;-62
2022/06/20 11:44:39;;;;;;;11.40;4.23;;;21.80;79.30;;;;;;20921834;28;20707;-62
2022/06/20 11:54:57;;;;;;;6.40;3.17;;;21.90;80.40;;;;;;20919658;28;20307;-67
2022/06/20 12:05:17;;;;;;;8.33;2.43;;;22.10;80.20;;;;;;20919121;28;20258;-61
2022/06/20 12:15:44;;;;;;;15.10;2.70;;;22.50;79.20;;;;;;20922939;28;20239;-63
2022/06/20 12:25:51;;;;;;;2.47;2.13;;;22.30;79.40;;;;;;20914273;28;20207;-63
2022/06/20 12:35:58;;;;;;;13.87;2.70;;;22.40;77.90;;;;;;20916242;28;20240;-64
2022/06/20 12:46:10;;;;;;;15.90;8.83;;;22.30;77.70;;;;;;20980132;28;20234;-63
2022/06/20 12:56:26;;;;;;;3.40;1.93;;;21.80;79.60;;;;;;20999973;28;20325;-66
2022/06/20 13:06:56;;;;;;;6.90;2.80;;;21.60;79.20;;;;;;20996358;28;20228;-64
2022/06/20 13:17:16;;;;;;;6.40;1.93;;;21.40;79.00;;;;;;20996540;28;20234;-66
2022/06/20 13:27:24;;;;;;;8.00;2.17;;;21.30;77.50;;;;;;20995455;28;20586;-63
2022/06/20 13:38:01;;;;;;;3.73;1.97;;;21.30;76.70;;;;;;20994389;28;20238;-63
2022/06/20 13:48:15;;;;;;;3.50;1.20;;;21.30;76.20;;;;;;20994818;28;20326;-64
2022/06/20 13:58:27;;;;;;;1.43;0.83;;;21.10;76.00;;;;;;20994938;28;20241;-65
2022/06/20 14:08:30;;;;;;;1.40;0.90;;;20.70;75.00;;;;;;20993380;28;20233;-72
2022/06/20 14:18:32;;;;;;;1.10;1.00;;;20.50;75.60;;;;;;20976410;28;20238;-76
2022/06/20 14:28:39;;;;;;;2.30;1.10;;;20.50;75.40;;;;;;20997367;28;20535;-76
2022/06/20 14:38:50;;;;;;;1.23;0.80;;;20.80;75.00;;;;;;20999362;28;20244;-72
2022/06/20 14:49:00;;;;;;;1.53;1.10;;;21.30;73.10;;;;;;21003662;28;20203;-65
2022/06/20 14:59:19;;;;;;;4.83;1.10;;;21.40;71.80;;;;;;21006338;28;20242;-69
2022/06/20 15:09:33;;;;;;;4.00;1.50;;;21.30;70.90;;;;;;21005785;28;20199;-65
2022/06/20 15:19:51;;;;;;;1.93;1.43;;;21.30;70.10;;;;;;20986101;28;20568;-70
2022/06/20 15:30:01;;;;;;;1.80;1.50;;;21.30;69.50;;;;;;21004159;28;20666;-62
2022/06/20 15:40:16;;;;;;;1.63;1.10;;;21.50;68.80;;;;;;21003066;28;20714;-66
2022/06/20 15:50:27;;;;;;;4.90;1.20;;;21.50;68.60;;;;;;21002177;28;20206;-67
2022/06/20 16:00:44;;;;;;;2.50;1.27;;;21.90;67.60;;;;;;21000722;28;20544;-66
2022/06/20 16:10:57;;;;;;;2.43;1.20;;;22.00;65.20;;;;;;21000763;28;20227;-71
2022/06/20 16:21:03;;;;;;;3.83;1.53;;;21.90;65.70;;;;;;20999280;28;20211;-66
2022/06/20 16:31:21;;;;;;;3.90;1.10;;;21.30;65.60;;;;;;21000199;28;20231;-70
2022/06/20 16:41:42;;;;;;;3.13;0.73;;;21.10;65.40;;;;;;20998008;28;20287;-69
2022/06/20 16:52:13;;;;;;;1.23;0.80;;;20.60;63.90;;;;;;20997931;28;20234;-70
2022/06/20 17:02:17;;;;;;;2.30;1.10;;;20.50;62.80;;;;;;20962726;28;20683;-65
2022/06/20 17:12:40;;;;;;;3.03;1.43;;;20.50;59.90;;;;;;20996094;28;20697;-74
2022/06/20 17:22:56;;;;;;;3.60;1.10;;;20.30;56.90;;;;;;20995612;28;20284;-66
2022/06/20 17:33:06;;;;;;;3.20;1.60;;;20.40;55.80;;;;;;20992971;28;20223;-71
2022/06/20 17:43:36;;;;;;;2.87;1.60;;;20.60;54.40;;;;;;21001470;28;20223;-71
2022/06/20 17:53:43;;;;;;;3.97;1.50;;;22.50;52.30;;;;;;20995477;28;20239;-74
2022/06/20 18:03:48;;;;;;;3.65;1.35;;;21.80;52.00;;;;;;20991110;28;20434;-72
2022/06/20 18:14:12;;;;;;;4.57;1.70;;;22.30;50.70;;;;;;20990974;28;20292;-72
2022/06/20 18:24:28;;;;;;;1.70;1.13;;;21.20;51.70;;;;;;20967672;28;20640;-75
2022/06/20 18:34:34;;;;;;;3.83;1.40;;;20.70;52.40;;;;;;20942973;28;20234;-71
2022/06/20 18:44:47;;;;;;;2.37;1.60;;;20.30;53.30;;;;;;21007406;28;20299;-69
2022/06/20 18:55:06;;;;;;;2.37;1.50;;;20.10;54.10;;;;;;21034349;28;20286;-69
2022/06/20 19:05:30;;;;;;;2.47;1.33;;;19.80;55.30;;;;;;21089752;28;20209;-69
2022/06/20 19:15:38;;;;;;;1.93;1.37;;;19.80;56.40;;;;;;21052553;28;20235;-67
2022/06/20 19:25:53;;;;;;;3.50;1.50;;;19.70;56.80;;;;;;21007414;28;20296;-66
2022/06/20 19:36:11;;;;;;;2.60;1.40;;;19.60;57.10;;;;;;21002890;28;20259;-65
2022/06/20 19:46:35;;;;;;;2.83;1.43;;;19.60;57.60;;;;;;20942589;28;20698;-65
2022/06/20 19:57:14;;;;;;;2.57;1.50;;;19.30;58.00;;;;;;20911165;28;20323;-63
2022/06/20 20:07:18;;;;;;;3.20;1.53;;;19.20;58.30;;;;;;20997157;28;20546;-73
2022/06/20 20:17:20;;;;;;;4.23;2.20;;;19.00;58.90;;;;;;20883798;28;20320;-70
2022/06/20 20:27:55;;;;;;;2.90;1.70;;;18.80;60.20;;;;;;20904707;28;20206;-70
2022/06/20 20:38:34;;;;;;;7.10;2.07;;;18.50;61.10;;;;;;20931603;28;20242;-70
2022/06/20 20:48:41;;;;;;;7.97;2.10;;;18.30;62.10;;;;;;20994595;28;20236;-70
2022/06/20 20:58:58;;;;;;;3.50;1.83;;;18.20;62.70;;;;;;20979571;28;20242;-70
2022/06/20 21:09:09;;;;;;;3.43;1.80;;;18.00;63.70;;;;;;20975981;28;20206;-72
2022/06/20 21:19:14;;;;;;;3.27;1.93;;;17.70;64.60;;;;;;20913237;28;20234;-69
2022/06/20 21:29:17;;;;;;;6.50;1.90;;;17.50;65.10;;;;;;20916789;28;20216;-74
2022/06/20 21:39:20;;;;;;;7.90;1.90;;;17.30;65.80;;;;;;20917484;28;20605;-75
2022/06/20 21:49:25;;;;;;;4.93;1.80;;;17.10;66.50;;;;;;20997706;28;20203;-72
2022/06/20 21:59:35;;;;;;;4.20;2.00;;;17.00;67.50;;;;;;21006388;28;20496;-77
2022/06/20 22:09:58;;;;;;;3.13;2.10;;;16.90;68.50;;;;;;21010776;28;20575;-64
2022/06/20 22:20:01;;;;;;;2.80;1.70;;;16.70;68.90;;;;;;20969172;28;20236;-76
2022/06/20 22:30:26;;;;;;;3.43;1.90;;;16.40;69.90;;;;;;20923937;28;20220;-79
2022/06/20 22:40:30;;;;;;;3.93;1.83;;;16.30;70.30;;;;;;20937077;28;20640;-63
2022/06/20 22:50:40;;;;;;;5.50;2.00;;;16.30;70.60;;;;;;20941054;28;20206;-68
2022/06/20 23:00:43;;;;;;;6.27;2.23;;;16.20;70.90;;;;;;20924371;28;20235;-67
2022/06/20 23:10:45;;;;;;;2.43;1.97;;;16.10;71.40;;;;;;20923071;28;20231;-64
2022/06/20 23:20:47;;;;;;;3.73;2.13;;;16.00;72.10;;;;;;20923077;28;20599;-66
2022/06/20 23:30:49;;;;;;;2.80;1.90;;;16.00;72.50;;;;;;20921312;28;20215;-66
2022/06/20 23:40:54;;;;;;;2.60;2.20;;;15.90;72.60;;;;;;20920653;28;20232;-67
2022/06/20 23:50:58;;;;;;;2.70;1.73;;;15.80;73.00;;;;;;20920259;28;20219;-73
